Language: 


Des rapports , des résumés tant et plus, au choix de chacun....


Données statistiques de la station
Quotidien Rapport Avril 27, 2017 Unités:  Anglais    Métrique   les deux
« Précédent Jour
Suivant Jour »
Quotidien Hebdomadaire Mensuel Annuel Actuel
  Haut: Bas: Moyen:
Température: 58.1 °F 33.8 °F 46 °F
Pt de rosée: 42.8 °F 28.4 °F 34.2 °F
Humidité: 95 % 38 % 65 %
Vitesse du vent: 10.5 mph 0 mph 3.2 mph
Rafales: 171.9 mph - -
Vent:- - WNW
Pression: 30.1 in 29.9 in -
Précipitation: 0 in    
Historical Graphs
 
 
Données statistiques pour Avril 27, 2017
Heure Température Point de rosée Pression Vent Vitesse du vent Refales Humidité Pluie (taux horaire)
00:01 39.7 °F 33.8 °F 30 in North 2.7 mph 4.3 mph 78 % 0 in
00:06 39.7 °F 33.8 °F 30 in NNW 1.3 mph 4.9 mph 79 % 0 in
00:11 39.2 °F 33.8 °F 30 in East 1.1 mph 4.9 mph 78 % 0 in
00:16 38.5 °F 32 °F 30 in Calm   3.6 mph 77 % 0 in
00:21 38.1 °F 32 °F 30 in Calm   2.9 mph 78 % 0 in
00:26 37.6 °F 32 °F 30 in Calm   2.2 mph 78 % 0 in
00:31 37.6 °F 32 °F 30 in Calm   2.7 mph 78 % 0 in
00:36 37.6 °F 32 °F 30 in NW 1.3 mph 3.6 mph 79 % 0 in
00:41 37.8 °F 33.8 °F 30 in WNW 1.6 mph 3.6 mph 80 % 0 in
00:46 38.1 °F 33.8 °F 30 in WNW 1.3 mph 5.6 mph 83 % 0 in
00:51 38.3 °F 33.8 °F 30 in Calm   5.6 mph 83 % 0 in
00:56 38.7 °F 33.8 °F 30 in NNE 2 mph 5.4 mph 84 % 0 in
01:01 38.8 °F 33.8 °F 30 in West 2 mph 5.4 mph 84 % 0 in
01:06 39.2 °F 33.8 °F 30 in North 5.4 mph 6.9 mph 83 % 0 in
01:11 39.4 °F 33.8 °F 30 in WNW 2.5 mph 6.9 mph 83 % 0 in
01:16 39.4 °F 33.8 °F 30 in NNW 2.7 mph 6.7 mph 82 % 0 in
01:21 39.6 °F 35.6 °F 30 in North 3.1 mph 7.4 mph 82 % 0 in
01:26 39.7 °F 35.6 °F 30 in NNW 7.2 mph 7.4 mph 83 % 0 in
01:31 39.9 °F 35.6 °F 30 in WNW 4.7 mph 7.2 mph 82 % 0 in
01:36 39.7 °F 35.6 °F 30 in NNE 3.6 mph 8.1 mph 82 % 0 in
01:41 39.6 °F 35.6 °F 30 in NNW 6 mph 8.1 mph 82 % 0 in
01:46 39.6 °F 35.6 °F 30 in West 5.8 mph 7.6 mph 82 % 0 in
01:51 39.6 °F 35.6 °F 30 in North 5.4 mph 8.5 mph 82 % 0 in
01:56 39.4 °F 33.8 °F 30 in NNW 7.4 mph 8.7 mph 83 % 0 in
02:02 39.4 °F 33.8 °F 30 in NW 4 mph 8.7 mph 83 % 0 in
02:07 39.2 °F 33.8 °F 30 in NNW 7.4 mph 171.9 mph 83 % 0 in
02:12 39.4 °F 33.8 °F 30 in NNW 3.4 mph 171.9 mph 83 % 0 in
02:17 39.4 °F 33.8 °F 30 in North 1.6 mph 8.1 mph 82 % 0 in
02:22 39.4 °F 33.8 °F 30 in NNW 3.6 mph 7.6 mph 81 % 0 in
02:27 39.7 °F 33.8 °F 30 in NNW 1.6 mph 7.8 mph 80 % 0 in
02:32 39.7 °F 33.8 °F 30 in NNW 3.1 mph 7.8 mph 79 % 0 in
03:05 38.7 °F 32 °F 30 in Calm   3.1 mph 77 % 0 in
03:10 38.3 °F 32 °F 30 in NNE 1.3 mph 3.4 mph 77 % 0 in
03:15 38.3 °F 32 °F 30 in Calm   3.4 mph 77 % 0 in
03:20 38.3 °F 32 °F 30 in North 2.7 mph 3.1 mph 78 % 0 in
03:25 37.9 °F 32 °F 30 in Calm   3.1 mph 77 % 0 in
03:26 37.9 °F 32 °F 30 in Calm   3.1 mph 77 % 0 in
03:31 37.4 °F 32 °F 30 in NNW 2.5 mph 3.4 mph 77 % 0 in
03:36 37.2 °F 32 °F 30 in Calm   3.8 mph 78 % 0 in
03:41 37.4 °F 32 °F 30 in North 3.1 mph 3.8 mph 79 % 0 in
03:46 37.6 °F 32 °F 30 in Calm   3.6 mph 80 % 0 in
03:51 37.4 °F 32 °F 30 in Calm   3.1 mph 80 % 0 in
03:56 37.4 °F 32 °F 30 in NW 1.6 mph 3.6 mph 80 % 0 in
04:01 37 °F 32 °F 30 in Calm   3.6 mph 80 % 0 in
04:06 36.5 °F 32 °F 30 in Calm   2.9 mph 79 % 0 in
04:11 36.3 °F 32 °F 30 in Calm     80 % 0 in
04:16 36.7 °F 32 °F 30 in Calm   3.8 mph 83 % 0 in
04:21 37 °F 33.8 °F 30 in West 3.1 mph 6 mph 84 % 0 in
04:26 36.7 °F 33.8 °F 30 in Calm   6 mph 84 % 0 in
04:31 36.3 °F 32 °F 30 in WSW 3.6 mph 4.9 mph 83 % 0 in
04:36 36.1 °F 32 °F 30 in Calm   3.6 mph 83 % 0 in
04:41 36 °F 32 °F 30 in Calm   3.6 mph 83 % 0 in
04:47 35.8 °F 32 °F 30 in Calm   2.5 mph 83 % 0 in
04:52 35.4 °F 32 °F 30 in Calm   2.5 mph 84 % 0 in
04:57 35.2 °F 30.2 °F 30 in Calm   2.5 mph 84 % 0 in
05:02 34.9 °F 30.2 °F 30 in Calm   2.5 mph 84 % 0 in
05:07 34.9 °F 32 °F 30 in Calm   2.5 mph 85 % 0 in
05:12 34.9 °F 32 °F 30 in West 2.5 mph 2.5 mph 85 % 0 in
05:17 34.7 °F 32 °F 30 in Calm   2.5 mph 85 % 0 in
05:22 34.5 °F 30.2 °F 30 in NNW 2.5 mph 2.9 mph 86 % 0 in
05:27 35.2 °F 32 °F 30 in WNW 3.8 mph 3.8 mph 88 % 0 in
05:32 35.6 °F 33.8 °F 30 in NW 2.9 mph 3.8 mph 88 % 0 in
05:37 36 °F 33.8 °F 30 in Calm   3.8 mph 89 % 0 in
05:42 35.8 °F 33.8 °F 30 in NW 2.5 mph 3.1 mph 88 % 0 in
05:47 35.6 °F 33.8 °F 30 in WSW 3.6 mph 3.6 mph 88 % 0 in
05:52 35.1 °F 32 °F 30 in Calm   3.6 mph 87 % 0 in
05:57 34.7 °F 32 °F 30 in Calm   3.6 mph 87 % 0 in
06:02 34.5 °F 30.2 °F 30 in Calm   2.5 mph 86 % 0 in
06:07 34 °F 30.2 °F 30 in Calm   2.5 mph 87 % 0 in
06:12 33.8 °F 30.2 °F 30 in Calm     87 % 0 in
06:17 34 °F 30.2 °F 30 in Calm     87 % 0 in
06:22 34.2 °F 32 °F 30 in Calm     88 % 0 in
06:28 34.2 °F 32 °F 30 in NNE 2.5 mph 4.9 mph 89 % 0 in
06:33 34.3 °F 32 °F 30 in North 2 mph 4.9 mph 89 % 0 in
06:38 34.5 °F 32 °F 30 in NE 2.5 mph 2.7 mph 90 % 0 in
06:43 34.7 °F 32 °F 30 in Calm   3.1 mph 90 % 0 in
06:48 34.7 °F 33.8 °F 30 in Calm   3.1 mph 91 % 0 in
06:53 34.7 °F 32 °F 30 in Calm     90 % 0 in
06:58 34.9 °F 33.8 °F 30 in Calm     91 % 0 in
07:03 35.4 °F 33.8 °F 30 in NNW 1.1 mph 4.9 mph 92 % 0 in
07:13 37.6 °F 37.4 °F 30 in NW 3.6 mph 7.4 mph 95 % 0 in
07:18 37.9 °F 37.4 °F 30 in NW 5.4 mph 7.4 mph 95 % 0 in
07:23 38.8 °F 37.4 °F 30 in Calm   7.2 mph 95 % 0 in
07:28 39.4 °F 37.4 °F 30 in West 5.8 mph 6.3 mph 94 % 0 in
07:33 39.7 °F 37.4 °F 30 in WNW 4 mph 6 mph 94 % 0 in
07:38 39.7 °F 37.4 °F 30 in North 4.9 mph 6 mph 93 % 0 in
07:43 40.3 °F 39.2 °F 30 in NNW 2.9 mph 6 mph 93 % 0 in
07:48 40.5 °F 39.2 °F 30 in West 4.7 mph 5.6 mph 93 % 0 in
07:53 40.6 °F 39.2 °F 30.1 in NNW 2.7 mph 5.6 mph 93 % 0 in
07:58 42.1 °F 41 °F 30.1 in North 2.7 mph 5.6 mph 94 % 0 in
08:03 42.8 °F 41 °F 30.1 in NNW 4 mph 5.8 mph 93 % 0 in
08:08 43.7 °F 42.8 °F 30 in WNW 2.7 mph 5.8 mph 93 % 0 in
08:13 43.9 °F 42.8 °F 30 in West 3.4 mph 6 mph 92 % 0 in
08:18 43.9 °F 41 °F 30 in WNW 3.4 mph 6 mph 90 % 0 in
08:24 43.3 °F 41 °F 30 in West 7.2 mph 8.1 mph 88 % 0 in
08:29 43.3 °F 41 °F 30 in West 3.1 mph 8.1 mph 88 % 0 in
08:34 42.8 °F 39.2 °F 30 in West 6.3 mph 7.2 mph 87 % 0 in
08:39 42.8 °F 39.2 °F 30 in West 2 mph 7.2 mph 87 % 0 in
08:44 43.9 °F 41 °F 30 in SW 2.7 mph 6.3 mph 88 % 0 in
08:49 44.6 °F 41 °F 30 in West 2.5 mph 5.8 mph 87 % 0 in
08:54 45 °F 42.8 °F 30 in West 2.5 mph 5.6 mph 87 % 0 in
08:59 45.9 °F 42.8 °F 30 in WNW 6 mph 6 mph 87 % 0 in
09:04 46.4 °F 42.8 °F 30 in WNW 2.7 mph 7.6 mph 85 % 0 in
09:09 46.4 °F 41 °F 30 in NW 7.4 mph 7.8 mph 81 % 0 in
09:14 45.7 °F 39.2 °F 30 in NNW 4.9 mph 7.8 mph 79 % 0 in
09:19 45.3 °F 39.2 °F 30 in North 2.7 mph 6.5 mph 78 % 0 in
09:24 45.1 °F 39.2 °F 30 in North 2.7 mph 4.7 mph 79 % 0 in
09:29 45.3 °F 39.2 °F 30 in WNW 3.1 mph 4.3 mph 79 % 0 in
09:34 45.5 °F 41 °F 30 in NNE 3.1 mph 4.9 mph 80 % 0 in
09:39 46.2 °F 41 °F 30 in North 3.6 mph 4.9 mph 81 % 0 in
09:44 46.8 °F 41 °F 30 in NNW 4.7 mph 5.6 mph 79 % 0 in
09:49 46.6 °F 41 °F 30 in South 3.1 mph 5.6 mph 78 % 0 in
09:54 47.3 °F 41 °F 30 in West 3.1 mph 5.4 mph 78 % 0 in
09:59 48.2 °F 42.8 °F 30 in West 2.7 mph 6 mph 77 % 0 in
10:04 49.1 °F 42.8 °F 30 in WNW 2.9 mph 7.4 mph 76 % 0 in
10:09 49.6 °F 42.8 °F 30 in WNW 2.7 mph 7.4 mph 74 % 0 in
10:15 50.2 °F 42.8 °F 30 in WNW 2 mph 6.5 mph 72 % 0 in
10:20 51.1 °F 42.8 °F 30 in NNE 4.5 mph 6 mph 71 % 0 in
10:25 51.8 °F 42.8 °F 30 in West 2 mph 6 mph 71 % 0 in
10:30 52.9 °F 42.8 °F 30 in NE 3.6 mph 7.8 mph 68 % 0 in
10:35 52.7 °F 42.8 °F 30 in WNW 4.9 mph 7.8 mph 66 % 0 in
10:40 51.4 °F 37.4 °F 30 in WNW 4.9 mph 7.2 mph 59 % 0 in
10:45 51.6 °F 39.2 °F 30 in West 4.3 mph 7.2 mph 60 % 0 in
10:50 53.1 °F 41 °F 30 in SSW 0.9 mph 5.6 mph 62 % 0 in
10:55 54.5 °F 41 °F 30 in WNW 2.7 mph 6.5 mph 59 % 0 in
11:00 53.6 °F 39.2 °F 30 in West 5.8 mph 7.8 mph 58 % 0 in
11:05 54.5 °F 41 °F 30 in North 4.3 mph 8.1 mph 58 % 0 in
11:10 53.1 °F 37.4 °F 30 in West 6 mph 8.5 mph 55 % 0 in
11:15 52.3 °F 35.6 °F 30 in West 4.3 mph 8.5 mph 52 % 0 in
11:20 52.3 °F 35.6 °F 30 in NW 6.5 mph 7.8 mph 52 % 0 in
11:25 51.8 °F 33.8 °F 30 in NNW 5.4 mph 9.6 mph 50 % 0 in
11:30 50.2 °F 33.8 °F 30 in WSW 6.3 mph 9.6 mph 51 % 0 in
11:35 49.5 °F 33.8 °F 30 in West 8.5 mph 11 mph 53 % 0 in
11:40 48.6 °F 33.8 °F 30 in WSW 7.2 mph 11 mph 54 % 0 in
11:45 48.6 °F 33.8 °F 30 in NW 5.4 mph 11 mph 57 % 0 in
11:50 48 °F 35.6 °F 30 in WSW 10.5 mph 15.7 mph 59 % 0 in
11:55 48 °F 33.8 °F 30 in WSW 1.6 mph 15.7 mph 57 % 0 in
12:00 48.6 °F 35.6 °F 30 in WNW 2.5 mph 9.4 mph 58 % 0 in
12:05 49.1 °F 35.6 °F 30 in West 2.5 mph 5.8 mph 59 % 0 in
12:10 49.6 °F 35.6 °F 30 in West 3.4 mph 5.8 mph 59 % 0 in
12:15 50 °F 37.4 °F 30 in West 2.7 mph 4.9 mph 59 % 0 in
12:21 50.5 °F 37.4 °F 30 in North 5.8 mph 5.8 mph 60 % 0 in
12:26 50.4 °F 37.4 °F 30 in WNW 4.3 mph 6.5 mph 59 % 0 in
12:31 50.4 °F 37.4 °F 30 in WNW 6 mph 8.1 mph 59 % 0 in
12:36 49.6 °F 33.8 °F 30 in WSW 3.6 mph 10.3 mph 55 % 0 in
12:41 49.6 °F 33.8 °F 30 in NNW 5.6 mph 10.3 mph 55 % 0 in
12:46 49.6 °F 33.8 °F 30 in NW 2.9 mph 8.1 mph 54 % 0 in
12:51 49.6 °F 33.8 °F 30 in North 5.4 mph 8.1 mph 53 % 0 in
12:56 49.6 °F 33.8 °F 30 in West 3.1 mph 8.1 mph 55 % 0 in
13:01 49.8 °F 33.8 °F 30 in WSW 6 mph 8.1 mph 55 % 0 in
13:05 49.8 °F 33.8 °F 30 in NNW 5.6 mph 7.8 mph 55 % 0 in
13:10 49.6 °F 33.8 °F 30 in WNW 3.6 mph 7.8 mph 54 % 0 in
13:15 49.8 °F 33.8 °F 30 in North 2.7 mph 8.7 mph 54 % 0 in
13:20 50.2 °F 33.8 °F 30 in NNW 6.5 mph 8.7 mph 54 % 0 in
13:25 50.4 °F 33.8 °F 30 in North 4 mph 8.5 mph 53 % 0 in
13:30 50.7 °F 33.8 °F 30 in West 3.8 mph 7.6 mph 53 % 0 in
13:35 50.9 °F 33.8 °F 30 in NNW 5.4 mph 7.6 mph 52 % 0 in
13:40 51.4 °F 35.6 °F 30 in NNW 5.6 mph 6.7 mph 53 % 0 in
13:45 51.4 °F 33.8 °F 30 in NNE 2.5 mph 8.7 mph 52 % 0 in
13:50 51.8 °F 35.6 °F 30 in WNW 4.9 mph 8.7 mph 52 % 0 in
13:55 53.4 °F 35.6 °F 30 in NNW 7.4 mph 7.8 mph 51 % 0 in
14:00 53.6 °F 35.6 °F 30 in WNW 6 mph 7.8 mph 50 % 0 in
14:05 56.1 °F 37.4 °F 30 in NW 4.3 mph 9.8 mph 49 % 0 in
14:06 56.7 °F 37.4 °F 30 in North 4.3 mph 9.8 mph 48 % 0 in
14:11 56.5 °F 37.4 °F 30 in WNW 6.5 mph 10.3 mph 48 % 0 in
14:16 54.5 °F 35.6 °F 30 in NNW 7.4 mph 10.3 mph 47 % 0 in
14:21 53.6 °F 33.8 °F 30 in WNW 1.1 mph 10.3 mph 47 % 0 in
14:26 52.9 °F 33.8 °F 30 in NW 3.8 mph 10.5 mph 47 % 0 in
14:31 52.7 °F 33.8 °F 30 in WNW 5.4 mph 10.5 mph 47 % 0 in
14:36 53.4 °F 33.8 °F 30 in NW 4.3 mph 8.7 mph 47 % 0 in
14:41 53.6 °F 33.8 °F 30 in NNW 5.4 mph 10.5 mph 46 % 0 in
14:46 53.4 °F 33.8 °F 30 in NW 3.6 mph 10.5 mph 47 % 0 in
14:51 53.2 °F 33.8 °F 30.1 in NW 6.3 mph 8.7 mph 47 % 0 in
14:56 53.2 °F 33.8 °F 30.1 in NNE 0.9 mph 8.7 mph 47 % 0 in
15:01 53.2 °F 33.8 °F 30.1 in WNW 3.8 mph 8.7 mph 47 % 0 in
15:06 53.1 °F 33.8 °F 30 in NNW 5.6 mph 8.5 mph 46 % 0 in
15:11 52.7 °F 33.8 °F 30 in NNW 3.4 mph 9.8 mph 46 % 0 in
15:16 52.3 °F 32 °F 30 in NNW 3.4 mph 9.8 mph 46 % 0 in
15:21 52.2 °F 32 °F 30 in WNW 5.6 mph 7.4 mph 46 % 0 in
15:26 52.7 °F 33.8 °F 30 in NW 4.3 mph 7.6 mph 46 % 0 in
15:31 53.4 °F 33.8 °F 30 in SSW 6 mph 9.4 mph 46 % 0 in
15:36 53.6 °F 33.8 °F 30 in North 7.2 mph 10.3 mph 46 % 0 in
15:41 54 °F 33.8 °F 30 in West 8.1 mph 10.3 mph 45 % 0 in
15:46 53.4 °F 33.8 °F 30 in NNW 3.6 mph 10.1 mph 46 % 0 in
15:51 55.2 °F 35.6 °F 30 in SSW 5.4 mph 10.1 mph 46 % 0 in
15:56 56.3 °F 35.6 °F 30 in North 6.5 mph 9.8 mph 45 % 0 in
16:01 57.6 °F 37.4 °F 30 in NNW 5.6 mph 9.8 mph 44 % 0 in
16:06 57.2 °F 35.6 °F 30 in NNW 3.4 mph 11 mph 44 % 0 in
16:11 57.2 °F 35.6 °F 30 in WNW 2.9 mph 11 mph 43 % 0 in
16:16 55.9 °F 33.8 °F 30 in WNW 5.8 mph 8.1 mph 43 % 0 in
16:21 54.5 °F 32 °F 30 in WNW 5.4 mph 8.5 mph 42 % 0 in
16:26 54.5 °F 32 °F 30 in WNW 3.8 mph 8.5 mph 42 % 0 in
16:32 55.2 °F 33.8 °F 30 in NNE 3.6 mph 7.8 mph 42 % 0 in
16:37 55.8 °F 33.8 °F 30 in West 2.5 mph 7.8 mph 41 % 0 in
16:42 56.3 °F 33.8 °F 30 in NW 7.6 mph 8.5 mph 41 % 0 in
16:47 55.4 °F 32 °F 30 in WNW 7.8 mph 8.5 mph 40 % 0 in
16:52 55 °F 32 °F 30 in West 7.2 mph 8.1 mph 41 % 0 in
16:57 54 °F 30.2 °F 30 in West 5.6 mph 9.4 mph 41 % 0 in
17:02 53.8 °F 30.2 °F 30 in WNW 2.5 mph 9.4 mph 40 % 0 in
17:03 53.4 °F 30.2 °F 30 in WNW 4.9 mph 8.5 mph 41 % 0 in
17:08 53.2 °F 30.2 °F 30 in NNE 3.1 mph 8.5 mph 41 % 0 in
17:13 54.1 °F 32 °F 30 in ESE 2.9 mph 8.7 mph 41 % 0 in
17:18 55.4 °F 32 °F 30 in WNW 5.4 mph 8.7 mph 41 % 0 in
17:23 56.3 °F 33.8 °F 30 in North 4 mph 7.8 mph 40 % 0 in
17:28 56.7 °F 33.8 °F 30 in North 5.4 mph 8.5 mph 40 % 0 in
17:30 56.8 °F 33.8 °F 30 in WNW 3.8 mph 8.5 mph 40 % 0 in
17:35 57.7 °F 33.8 °F 30 in WSW 3.8 mph 7.4 mph 39 % 0 in
17:40 58.1 °F 33.8 °F 30 in WNW 4.5 mph 6.5 mph 39 % 0 in
17:45 57.9 °F 33.8 °F 30 in NW 4.9 mph 8.7 mph 39 % 0 in
17:50 57.2 °F 32 °F 30 in Calm   8.7 mph 38 % 0 in
17:55 57.7 °F 32 °F 30 in WNW 8.5 mph 8.5 mph 38 % 0 in
18:00 57.6 °F 32 °F 30 in NNW 5.4 mph 10.1 mph 38 % 0 in
18:05 56.8 °F 32 °F 30 in West 2.5 mph 10.1 mph 38 % 0 in
18:10 56.8 °F 32 °F 30 in North 3.6 mph 7.6 mph 39 % 0 in
18:15 55.2 °F 32 °F 30 in NNE 1.3 mph 10.1 mph 39 % 0 in
18:20 54.5 °F 30.2 °F 30 in North 5.6 mph 10.1 mph 39 % 0 in
18:25 53.6 °F 30.2 °F 30 in NNE 2.5 mph 5.6 mph 39 % 0 in
18:30 52.5 °F 28.4 °F 30 in NNW 1.6 mph 7.2 mph 40 % 0 in
18:35 52.2 °F 28.4 °F 30 in NNE 1.1 mph 7.2 mph 40 % 0 in
18:40 51.8 °F 28.4 °F 30 in North 2.9 mph 7.4 mph 40 % 0 in
18:45 51.4 °F 28.4 °F 30 in West 2 mph 7.4 mph 41 % 0 in
18:50 51.3 °F 28.4 °F 30 in North 2.7 mph 6 mph 42 % 0 in
18:55 51.1 °F 28.4 °F 30 in WNW 3.1 mph 6 mph 42 % 0 in
19:01 50.9 °F 30.2 °F 30 in North 4 mph 5.4 mph 43 % 0 in
19:06 50.7 °F 28.4 °F 30 in WNW 2 mph 6 mph 43 % 0 in
19:11 50.5 °F 28.4 °F 30 in WNW 3.8 mph 6 mph 43 % 0 in
19:16 50.4 °F 30.2 °F 30 in West 1.6 mph 5.4 mph 44 % 0 in
19:21 50.4 °F 30.2 °F 30 in West 3.8 mph 8.1 mph 45 % 0 in
19:26 50.4 °F 30.2 °F 30 in WNW 7.4 mph 8.1 mph 46 % 0 in
19:31 50.4 °F 30.2 °F 30 in WNW 2.9 mph 7.8 mph 46 % 0 in
19:36 50.4 °F 32 °F 30 in WNW 4 mph 7.4 mph 47 % 0 in
19:41 50.2 °F 30.2 °F 30 in NW 2.5 mph 6.5 mph 47 % 0 in
19:46 50.2 °F 30.2 °F 30 in WSW 3.4 mph 7.8 mph 47 % 0 in
19:51 49.8 °F 30.2 °F 30 in WNW 3.4 mph 8.1 mph 47 % 0 in
19:56 49.8 °F 30.2 °F 30 in WSW 3.1 mph 8.1 mph 47 % 0 in
20:01 49.5 °F 30.2 °F 30 in WNW 2.7 mph 9.6 mph 47 % 0 in
20:06 49.3 °F 30.2 °F 30 in NNW 4 mph 9.6 mph 47 % 0 in
20:11 49.1 °F 30.2 °F 30 in West 5.6 mph 8.1 mph 48 % 0 in
20:16 48.9 °F 30.2 °F 30 in WNW 3.8 mph 9.6 mph 48 % 0 in
20:21 48.7 °F 30.2 °F 30 in West 4.7 mph 8.5 mph 49 % 0 in
20:26 48.7 °F 30.2 °F 30 in WNW 4.9 mph 7.4 mph 49 % 0 in
20:31 48.6 °F 30.2 °F 30 in South 5.4 mph 6.3 mph 49 % 0 in
20:36 48.2 °F 30.2 °F 30 in West 2 mph 5.8 mph 50 % 0 in
20:41 48 °F 32 °F 30 in NW 2.7 mph 6.7 mph 51 % 0 in
20:46 47.7 °F 30.2 °F 30 in NW 2.9 mph 8.7 mph 51 % 0 in
20:51 47.5 °F 32 °F 30 in West 6 mph 9.6 mph 52 % 0 in
20:57 47.3 °F 32 °F 30 in WNW 3.4 mph 10.3 mph 53 % 0 in
21:02 47.1 °F 32 °F 30 in West 4 mph 10.3 mph 54 % 0 in
21:07 47.1 °F 32 °F 30 in West 3.8 mph 8.5 mph 55 % 0 in
21:12 46.9 °F 32 °F 30 in West 7.2 mph 8.5 mph 55 % 0 in
21:17 46.8 °F 32 °F 30 in West 3.6 mph 7.6 mph 55 % 0 in
21:22 46.8 °F 32 °F 30 in West 2.7 mph 6.5 mph 55 % 0 in
21:27 46.6 °F 32 °F 30 in WNW 2.5 mph 6.3 mph 55 % 0 in
21:32 46.6 °F 32 °F 30 in West 4 mph 6.3 mph 56 % 0 in
21:37 46.6 °F 32 °F 30 in West 3.1 mph 4 mph 56 % 0 in
21:42 46.4 °F 32 °F 30 in West 3.1 mph 4.3 mph 56 % 0 in
21:47 46.2 °F 32 °F 30 in Calm   4 mph 57 % 0 in
21:52 46.2 °F 32 °F 30 in West 1.3 mph 4 mph 58 % 0 in
21:57 46 °F 32 °F 30 in Calm   4 mph 59 % 0 in
22:02 45.9 °F 33.8 °F 30 in Calm   2.7 mph 60 % 0 in
22:07 45.9 °F 33.8 °F 30 in Calm   1.3 mph 60 % 0 in
22:12 45.7 °F 33.8 °F 30 in Calm   1.3 mph 60 % 0 in
22:17 45.7 °F 33.8 °F 30 in WSW 3.4 mph 3.8 mph 61 % 0 in
22:22 45.5 °F 33.8 °F 30 in West 3.6 mph 4 mph 61 % 0 in
22:27 45.5 °F 33.8 °F 30 in West 3.4 mph 4.3 mph 62 % 0 in
22:32 45.5 °F 33.8 °F 30 in Calm   4.7 mph 62 % 0 in
22:37 45.5 °F 33.8 °F 30 in Calm   4.7 mph 62 % 0 in
22:42 45.5 °F 33.8 °F 30 in Calm   4 mph 63 % 0 in
22:47 45.3 °F 33.8 °F 30 in Calm   2.9 mph 63 % 0 in
22:52 45.3 °F 33.8 °F 30 in Calm   2.9 mph 64 % 0 in
22:58 45.1 °F 33.8 °F 30 in Calm     63 % 0 in
23:03 45.1 °F 33.8 °F 30 in Calm     64 % 0 in
23:08 45.1 °F 33.8 °F 30 in Calm   3.1 mph 64 % 0 in
23:13 45 °F 33.8 °F 30 in Calm   3.1 mph 64 % 0 in
23:18 44.8 °F 33.8 °F 30 in Calm   3.6 mph 65 % 0 in
23:23 44.6 °F 33.8 °F 30 in West 2 mph 3.6 mph 65 % 0 in
23:28 44.4 °F 33.8 °F 30 in West 1.3 mph 3.4 mph 66 % 0 in
23:34 44.2 °F 33.8 °F 30 in West 1.6 mph 3.4 mph 66 % 0 in
23:39 44.1 °F 33.8 °F 30 in Calm   3.1 mph 67 % 0 in
23:44 43.9 °F 33.8 °F 30 in Calm   2.7 mph 67 % 0 in
23:49 43.7 °F 33.8 °F 30 in West 2.9 mph 2.9 mph 68 % 0 in
23:54 43.7 °F 33.8 °F 29.9 in Calm   3.4 mph 68 % 0 in
23:59 43.7 °F 33.8 °F 29.9 in Calm   3.4 mph 68 % 0 in
Le Gheer Warneton
Courtoisie de Weather Underground - 2.25 mb

Mise a jour : 16-12-17 15:37:11
Généré par Cumulus 1.9.4 (1099)